Catàleg de serveis del Meteocat
Campanya meteocatpedra

Dades de l'estació automàtica el Canós

?
?
Resum diari 21:30 TU
Dades diàries de l'estació meteorològica
Temperatura mitjana 7.5 °C
Temperatura màxima 10.9 °C 14:12 TU
Temperatura mínima 5.4 °C 6:06 TU
Humitat relativa mitjana 83%
Precipitació acumulada 0.0 mm
Ratxa màxima del vent (2 m) 27.0 km/h - 253º 17:48 TU
Irradiació solar global 6.0 MJ/m2

El tram horari està expressat en Temps Universal (TU). Cal sumar una hora en horari d'hivern i dues en horari d'estiu per passar a l'hora oficial.

el Canós

Metadades estació meteorol´gica
Municipi Els Plans de Sió
Comarca Segarra
Altitud 429 m
Data alta 22.10.1988
Estat actual Operativa
Dades de període
Període
TU
TM
°C
TX
°C
TN
°C
HRM
%
PPT
mm
VVM (2 m)
km/h
DVM (2 m)
graus
VVX (2 m)
km/h
RS
W/m2
00:00 - 00:30 6.6 6.8 6.5 84 0.0 8.6 230 13.7 0
00:30 - 01:00 6.6 6.7 6.4 84 0.0 8.6 217 14.8 0
01:00 - 01:30 6.1 6.5 5.9 85 0.0 7.2 219 11.5 0
01:30 - 02:00 5.8 6.0 5.4 86 0.0 5.4 219 8.3 0
02:00 - 02:30 5.8 5.9 5.5 86 0.0 5.4 215 8.6 0
02:30 - 03:00 6.0 6.1 5.7 86 0.0 4.0 206 9.7 0
03:00 - 03:30 6.1 6.3 6.0 86 0.0 3.2 210 7.6 0
03:30 - 04:00 6.0 6.2 5.8 87 0.0 3.2 233 6.1 0
04:00 - 04:30 6.2 6.4 6.0 87 0.0 1.4 212 5.8 0
04:30 - 05:00 6.1 6.4 5.8 87 0.0 0.0 205 2.2 0
05:00 - 05:30 5.6 5.8 5.5 90 0.0 0.4 92 3.2 0
05:30 - 06:00 5.5 5.5 5.4 91 0.0 0.4 104 2.9 0
06:00 - 06:30 5.5 5.6 5.4 92 0.0 0.0 114 1.1 0
06:30 - 07:00 5.7 5.9 5.6 91 0.0 0.4 49 2.9 1
07:00 - 07:30 5.7 5.9 5.6 93 0.0 0.0 103 1.4 5
07:30 - 08:00 6.3 6.7 5.9 92 0.0 0.7 136 5.4 26
08:00 - 08:30 6.9 7.1 6.8 89 0.0 0.7 121 4.3 53
08:30 - 09:00 7.9 8.2 7.2 86 0.0 0.4 141 2.2 118
09:00 - 09:30 8.0 8.1 7.8 86 0.0 2.9 310 9.0 63
09:30 - 10:00 7.5 7.7 7.3 89 0.0 5.0 274 9.7 55
10:00 - 10:30 7.3 7.4 7.2 91 0.0 4.7 264 8.6 103
10:30 - 11:00 7.5 8.1 7.3 91 0.0 3.6 264 6.8 170
11:00 - 11:30 7.9 8.2 7.7 88 0.0 6.1 264 11.5 235
11:30 - 12:00 8.1 8.3 7.7 87 0.0 8.3 253 14.8 294
12:00 - 12:30 8.2 8.8 7.8 85 0.0 8.6 252 14.4 258
12:30 - 13:00 9.0 9.7 8.6 81 0.0 9.4 248 15.5 309
13:00 - 13:30 9.9 10.2 9.5 75 0.0 11.2 242 17.6 481
13:30 - 14:00 10.3 10.5 9.9 73 0.0 11.2 252 20.2 406
14:00 - 14:30 10.6 10.9 10.1 71 0.0 13.0 254 20.2 325
14:30 - 15:00 10.1 10.6 9.8 76 0.0 14.8 247 22.7 189
15:00 - 15:30 10.3 10.4 10.2 76 0.0 13.7 247 22.0 173
15:30 - 16:00 10.3 10.5 10.0 77 0.0 11.9 244 19.1 107
16:00 - 16:30 9.8 10.0 9.2 80 0.0 7.6 229 14.8 34
16:30 - 17:00 9.0 9.1 8.8 84 0.0 3.2 195 7.9 0
17:00 - 17:30 8.6 8.8 8.5 86 0.0 2.9 185 10.4 0
17:30 - 18:00 8.9 9.3 8.5 77 0.0 14.4 232 27.0 0
18:00 - 18:30 8.9 9.3 8.6 72 0.0 17.3 232 24.8 0
18:30 - 19:00 8.5 8.8 8.2 70 0.0 13.7 224 22.7 0
19:00 - 19:30 8.0 8.3 7.9 70 0.0 14.8 236 24.1 0
19:30 - 20:00 7.8 8.1 7.5 70 0.0 12.6 233 20.5 0
20:00 - 20:30 7.4 7.6 7.1 71 0.0 6.8 216 14.0 0
20:30 - 21:00 6.9 7.1 6.5 73 0.0 7.2 229 13.7 0
21:00 - 21:30 6.5 6.7 6.3 74 0.0 6.5 222 13.3 0
21:30 - 22:00 6.2 6.5 6.0 76 0.0 5.0 237 9.4 0

Les dades en taronja només han passat un control de qualitat automàtic. Resta pendent la seva validació definitiva.